sensor_id;sensor_type;location;lat;lon;timestamp;temperature;humidity
19031;DHT22;9648;51.130;13.978;2022-11-20T00:00:39;-6.20;99.90
19031;DHT22;9648;51.130;13.978;2022-11-20T00:03:07;-6.20;99.90
19031;DHT22;9648;51.130;13.978;2022-11-20T00:05:33;-6.30;99.90
19031;DHT22;9648;51.130;13.978;2022-11-20T00:08:00;-6.30;99.90
19031;DHT22;9648;51.130;13.978;2022-11-20T00:10:27;-6.30;99.90
19031;DHT22;9648;51.130;13.978;2022-11-20T00:12:54;-6.30;99.90
19031;DHT22;9648;51.130;13.978;2022-11-20T00:15:21;-6.30;99.90
19031;DHT22;9648;51.130;13.978;2022-11-20T00:17:47;-6.30;99.90
19031;DHT22;9648;51.130;13.978;2022-11-20T00:20:16;-6.40;99.90
19031;DHT22;9648;51.130;13.978;2022-11-20T00:22:43;-6.40;99.90
19031;DHT22;9648;51.130;13.978;2022-11-20T00:25:09;-6.40;99.90
19031;DHT22;9648;51.130;13.978;2022-11-20T00:27:37;-6.30;99.90
19031;DHT22;9648;51.130;13.978;2022-11-20T00:30:05;-6.40;99.90
19031;DHT22;9648;51.130;13.978;2022-11-20T00:32:32;-6.40;99.90
19031;DHT22;9648;51.130;13.978;2022-11-20T00:34:59;-6.40;99.90
19031;DHT22;9648;51.130;13.978;2022-11-20T00:37:27;-6.30;99.90
19031;DHT22;9648;51.130;13.978;2022-11-20T00:39:54;-6.30;99.90
19031;DHT22;9648;51.130;13.978;2022-11-20T00:42:21;-6.30;99.90
19031;DHT22;9648;51.130;13.978;2022-11-20T00:44:47;-6.40;99.90
19031;DHT22;9648;51.130;13.978;2022-11-20T00:47:14;-6.30;99.90
19031;DHT22;9648;51.130;13.978;2022-11-20T00:49:41;-6.40;99.90
19031;DHT22;9648;51.130;13.978;2022-11-20T00:52:08;-6.40;99.90
19031;DHT22;9648;51.130;13.978;2022-11-20T00:54:36;-6.40;99.90
19031;DHT22;9648;51.130;13.978;2022-11-20T00:57:03;-6.40;99.90
19031;DHT22;9648;51.130;13.978;2022-11-20T00:59:30;-6.40;99.90
19031;DHT22;9648;51.130;13.978;2022-11-20T01:01:56;-6.40;99.90
19031;DHT22;9648;51.130;13.978;2022-11-20T01:04:23;-6.40;99.90
19031;DHT22;9648;51.130;13.978;2022-11-20T01:06:50;-6.40;99.90
19031;DHT22;9648;51.130;13.978;2022-11-20T01:09:17;-6.40;99.90
19031;DHT22;9648;51.130;13.978;2022-11-20T01:11:45;-6.40;99.90
19031;DHT22;9648;51.130;13.978;2022-11-20T01:14:13;-6.40;99.90
19031;DHT22;9648;51.130;13.978;2022-11-20T01:16:42;-6.40;99.90
19031;DHT22;9648;51.130;13.978;2022-11-20T01:19:11;-6.30;99.90
19031;DHT22;9648;51.130;13.978;2022-11-20T01:21:39;-6.40;99.90
19031;DHT22;9648;51.130;13.978;2022-11-20T01:24:08;-6.30;99.90
19031;DHT22;9648;51.130;13.978;2022-11-20T01:26:37;-6.30;99.90
19031;DHT22;9648;51.130;13.978;2022-11-20T01:29:06;-6.30;99.90
19031;DHT22;9648;51.130;13.978;2022-11-20T01:31:34;-6.30;99.90
19031;DHT22;9648;51.130;13.978;2022-11-20T01:34:03;-6.40;99.90
19031;DHT22;9648;51.130;13.978;2022-11-20T01:36:31;-6.40;99.90
19031;DHT22;9648;51.130;13.978;2022-11-20T01:38:59;-6.40;99.90
19031;DHT22;9648;51.130;13.978;2022-11-20T01:41:28;-6.40;99.90
19031;DHT22;9648;51.130;13.978;2022-11-20T01:44:17;-6.40;99.90
19031;DHT22;9648;51.130;13.978;2022-11-20T01:46:52;-6.50;99.90
19031;DHT22;9648;51.130;13.978;2022-11-20T01:49:21;-6.50;99.90
19031;DHT22;9648;51.130;13.978;2022-11-20T01:51:52;-6.50;99.90
19031;DHT22;9648;51.130;13.978;2022-11-20T01:54:23;-6.50;99.90
19031;DHT22;9648;51.130;13.978;2022-11-20T01:56:52;-6.50;99.90
19031;DHT22;9648;51.130;13.978;2022-11-20T01:59:23;-6.50;99.90
19031;DHT22;9648;51.130;13.978;2022-11-20T02:01:50;-6.50;99.90
19031;DHT22;9648;51.130;13.978;2022-11-20T02:04:18;-6.50;99.90
19031;DHT22;9648;51.130;13.978;2022-11-20T02:06:48;-6.40;99.90
19031;DHT22;9648;51.130;13.978;2022-11-20T02:09:17;-6.50;99.90
19031;DHT22;9648;51.130;13.978;2022-11-20T02:11:44;-6.50;99.90
19031;DHT22;9648;51.130;13.978;2022-11-20T02:14:11;-6.50;99.90
19031;DHT22;9648;51.130;13.978;2022-11-20T02:16:44;-6.50;99.90
19031;DHT22;9648;51.130;13.978;2022-11-20T02:19:19;-6.50;99.90
19031;DHT22;9648;51.130;13.978;2022-11-20T02:21:54;-6.50;99.90
19031;DHT22;9648;51.130;13.978;2022-11-20T02:24:24;-6.50;99.90
19031;DHT22;9648;51.130;13.978;2022-11-20T02:26:54;-6.50;99.90
19031;DHT22;9648;51.130;13.978;2022-11-20T02:29:25;-6.50;99.90
19031;DHT22;9648;51.130;13.978;2022-11-20T02:31:55;-6.50;99.90
19031;DHT22;9648;51.130;13.978;2022-11-20T02:34:22;-6.50;99.90
19031;DHT22;9648;51.130;13.978;2022-11-20T02:36:50;-6.60;99.90
19031;DHT22;9648;51.130;13.978;2022-11-20T02:39:19;-6.60;99.90
19031;DHT22;9648;51.130;13.978;2022-11-20T02:41:48;-6.60;99.90
19031;DHT22;9648;51.130;13.978;2022-11-20T02:44:15;-6.60;99.90
19031;DHT22;9648;51.130;13.978;2022-11-20T02:46:42;-6.60;99.90
19031;DHT22;9648;51.130;13.978;2022-11-20T02:49:08;-6.60;99.90
19031;DHT22;9648;51.130;13.978;2022-11-20T02:51:35;-6.60;99.90
19031;DHT22;9648;51.130;13.978;2022-11-20T02:54:02;-6.60;99.90
19031;DHT22;9648;51.130;13.978;2022-11-20T02:56:30;-6.60;99.90
19031;DHT22;9648;51.130;13.978;2022-11-20T02:58:58;-6.60;99.90
19031;DHT22;9648;51.130;13.978;2022-11-20T03:01:25;-6.60;99.90
19031;DHT22;9648;51.130;13.978;2022-11-20T03:03:51;-6.60;99.90
19031;DHT22;9648;51.130;13.978;2022-11-20T03:06:20;-6.60;99.90
19031;DHT22;9648;51.130;13.978;2022-11-20T03:08:46;-6.60;99.90
19031;DHT22;9648;51.130;13.978;2022-11-20T03:11:13;-6.60;99.90
19031;DHT22;9648;51.130;13.978;2022-11-20T03:13:40;-6.50;99.90
19031;DHT22;9648;51.130;13.978;2022-11-20T03:16:11;-6.60;99.90
19031;DHT22;9648;51.130;13.978;2022-11-20T03:18:38;-6.50;99.90
19031;DHT22;9648;51.130;13.978;2022-11-20T03:21:05;-6.60;99.90
19031;DHT22;9648;51.130;13.978;2022-11-20T03:23:34;-6.60;99.90
19031;DHT22;9648;51.130;13.978;2022-11-20T03:26:09;-6.50;99.90
19031;DHT22;9648;51.130;13.978;2022-11-20T03:28:36;-6.50;99.90
19031;DHT22;9648;51.130;13.978;2022-11-20T03:31:09;-6.50;99.90
19031;DHT22;9648;51.130;13.978;2022-11-20T03:33:36;-6.50;99.90
19031;DHT22;9648;51.130;13.978;2022-11-20T03:36:04;-6.50;99.90
19031;DHT22;9648;51.130;13.978;2022-11-20T03:38:32;-6.50;99.90
19031;DHT22;9648;51.130;13.978;2022-11-20T03:41:00;-6.50;99.90
19031;DHT22;9648;51.130;13.978;2022-11-20T03:43:27;-6.50;99.90
19031;DHT22;9648;51.130;13.978;2022-11-20T03:45:54;-6.50;99.90
19031;DHT22;9648;51.130;13.978;2022-11-20T03:48:22;-6.50;99.90
19031;DHT22;9648;51.130;13.978;2022-11-20T03:50:49;-6.50;99.90
19031;DHT22;9648;51.130;13.978;2022-11-20T03:53:16;-6.50;99.90
19031;DHT22;9648;51.130;13.978;2022-11-20T03:55:43;-6.60;99.90
19031;DHT22;9648;51.130;13.978;2022-11-20T03:58:10;-6.60;99.90
19031;DHT22;9648;51.130;13.978;2022-11-20T04:00:37;-6.60;99.90
19031;DHT22;9648;51.130;13.978;2022-11-20T04:03:03;-6.60;99.90
19031;DHT22;9648;51.130;13.978;2022-11-20T04:05:32;-6.70;99.90
19031;DHT22;9648;51.130;13.978;2022-11-20T04:07:59;-6.70;99.90
19031;DHT22;9648;51.130;13.978;2022-11-20T04:10:26;-6.70;99.90
19031;DHT22;9648;51.130;13.978;2022-11-20T04:12:53;-6.70;99.90
19031;DHT22;9648;51.130;13.978;2022-11-20T04:15:20;-6.70;99.90
19031;DHT22;9648;51.130;13.978;2022-11-20T04:17:46;-6.60;99.90
19031;DHT22;9648;51.130;13.978;2022-11-20T04:20:13;-6.60;99.90
19031;DHT22;9648;51.130;13.978;2022-11-20T04:22:41;-6.60;99.90
19031;DHT22;9648;51.130;13.978;2022-11-20T04:25:08;-6.50;99.90
19031;DHT22;9648;51.130;13.978;2022-11-20T04:27:35;-6.50;99.90
19031;DHT22;9648;51.130;13.978;2022-11-20T04:30:05;-6.50;99.90
19031;DHT22;9648;51.130;13.978;2022-11-20T04:32:32;-6.50;99.90
19031;DHT22;9648;51.130;13.978;2022-11-20T04:34:59;-6.60;99.90
19031;DHT22;9648;51.130;13.978;2022-11-20T04:37:25;-6.60;99.90
19031;DHT22;9648;51.130;13.978;2022-11-20T04:39:54;-6.60;99.90
19031;DHT22;9648;51.130;13.978;2022-11-20T04:42:20;-6.50;99.90
19031;DHT22;9648;51.130;13.978;2022-11-20T04:44:57;-6.50;99.90
19031;DHT22;9648;51.130;13.978;2022-11-20T04:47:24;-6.50;99.90
19031;DHT22;9648;51.130;13.978;2022-11-20T04:49:50;-6.50;99.90
19031;DHT22;9648;51.130;13.978;2022-11-20T04:52:17;-6.50;99.90
19031;DHT22;9648;51.130;13.978;2022-11-20T04:54:44;-6.50;99.90
19031;DHT22;9648;51.130;13.978;2022-11-20T04:57:14;-6.50;99.90
19031;DHT22;9648;51.130;13.978;2022-11-20T04:59:41;-6.40;99.90
19031;DHT22;9648;51.130;13.978;2022-11-20T05:02:08;-6.40;99.90
19031;DHT22;9648;51.130;13.978;2022-11-20T05:04:35;-6.40;99.90
19031;DHT22;9648;51.130;13.978;2022-11-20T05:07:02;-6.40;99.90
19031;DHT22;9648;51.130;13.978;2022-11-20T05:09:29;-6.40;99.90
19031;DHT22;9648;51.130;13.978;2022-11-20T05:11:56;-6.40;99.90
19031;DHT22;9648;51.130;13.978;2022-11-20T05:14:24;-6.40;99.90
19031;DHT22;9648;51.130;13.978;2022-11-20T05:16:51;-6.40;99.90
19031;DHT22;9648;51.130;13.978;2022-11-20T05:19:18;-6.40;99.90
19031;DHT22;9648;51.130;13.978;2022-11-20T05:21:44;-6.50;99.90
19031;DHT22;9648;51.130;13.978;2022-11-20T05:24:11;-6.40;99.90
19031;DHT22;9648;51.130;13.978;2022-11-20T05:26:38;-6.50;99.90
19031;DHT22;9648;51.130;13.978;2022-11-20T05:29:05;-6.40;99.90
19031;DHT22;9648;51.130;13.978;2022-11-20T05:31:33;-6.40;99.90
19031;DHT22;9648;51.130;13.978;2022-11-20T05:33:59;-6.50;99.90
19031;DHT22;9648;51.130;13.978;2022-11-20T05:36:26;-6.40;99.90
19031;DHT22;9648;51.130;13.978;2022-11-20T05:38:53;-6.50;99.90
19031;DHT22;9648;51.130;13.978;2022-11-20T05:41:20;-6.50;99.90
19031;DHT22;9648;51.130;13.978;2022-11-20T05:43:48;-6.50;99.90
19031;DHT22;9648;51.130;13.978;2022-11-20T05:46:16;-6.50;99.90
19031;DHT22;9648;51.130;13.978;2022-11-20T05:48:45;-6.50;99.90
19031;DHT22;9648;51.130;13.978;2022-11-20T05:51:15;-6.50;99.90
19031;DHT22;9648;51.130;13.978;2022-11-20T05:53:42;-6.50;99.90
19031;DHT22;9648;51.130;13.978;2022-11-20T05:56:10;-6.50;99.90
19031;DHT22;9648;51.130;13.978;2022-11-20T05:58:38;-6.50;99.90
19031;DHT22;9648;51.130;13.978;2022-11-20T06:01:06;-6.50;99.90
19031;DHT22;9648;51.130;13.978;2022-11-20T06:03:33;-6.40;99.90
19031;DHT22;9648;51.130;13.978;2022-11-20T06:06:02;-6.40;99.90
19031;DHT22;9648;51.130;13.978;2022-11-20T06:08:29;-6.40;99.90
19031;DHT22;9648;51.130;13.978;2022-11-20T06:10:56;-6.40;99.90
19031;DHT22;9648;51.130;13.978;2022-11-20T06:13:23;-6.40;99.90
19031;DHT22;9648;51.130;13.978;2022-11-20T06:15:50;-6.40;99.90
19031;DHT22;9648;51.130;13.978;2022-11-20T06:18:17;-6.40;99.90
19031;DHT22;9648;51.130;13.978;2022-11-20T06:20:45;-6.40;99.90
19031;DHT22;9648;51.130;13.978;2022-11-20T06:23:13;-6.40;99.90
19031;DHT22;9648;51.130;13.978;2022-11-20T06:25:41;-6.30;99.90
19031;DHT22;9648;51.130;13.978;2022-11-20T06:28:08;-6.30;99.90
19031;DHT22;9648;51.130;13.978;2022-11-20T06:30:36;-6.30;99.90
19031;DHT22;9648;51.130;13.978;2022-11-20T06:33:03;-6.30;99.90
19031;DHT22;9648;51.130;13.978;2022-11-20T06:35:30;-6.30;99.90
19031;DHT22;9648;51.130;13.978;2022-11-20T06:37:56;-6.20;99.90
19031;DHT22;9648;51.130;13.978;2022-11-20T06:40:25;-6.10;99.90
19031;DHT22;9648;51.130;13.978;2022-11-20T06:42:53;-6.00;99.90
19031;DHT22;9648;51.130;13.978;2022-11-20T06:45:21;-5.90;99.90
19031;DHT22;9648;51.130;13.978;2022-11-20T06:47:47;-5.90;99.90
19031;DHT22;9648;51.130;13.978;2022-11-20T06:50:14;-5.80;99.90
19031;DHT22;9648;51.130;13.978;2022-11-20T06:52:41;-5.70;99.90
19031;DHT22;9648;51.130;13.978;2022-11-20T06:55:08;-5.60;99.90
19031;DHT22;9648;51.130;13.978;2022-11-20T06:57:36;-5.60;99.90
19031;DHT22;9648;51.130;13.978;2022-11-20T07:00:04;-5.50;99.90
19031;DHT22;9648;51.130;13.978;2022-11-20T07:02:31;-5.50;99.90
19031;DHT22;9648;51.130;13.978;2022-11-20T07:04:57;-5.40;99.90
19031;DHT22;9648;51.130;13.978;2022-11-20T07:07:24;-5.40;99.90
19031;DHT22;9648;51.130;13.978;2022-11-20T07:09:51;-5.40;99.90
19031;DHT22;9648;51.130;13.978;2022-11-20T07:12:18;-5.40;99.90
19031;DHT22;9648;51.130;13.978;2022-11-20T07:14:46;-5.30;99.90
19031;DHT22;9648;51.130;13.978;2022-11-20T07:17:13;-5.30;99.90
19031;DHT22;9648;51.130;13.978;2022-11-20T07:19:39;-5.20;99.90
19031;DHT22;9648;51.130;13.978;2022-11-20T07:22:08;-5.20;99.90
19031;DHT22;9648;51.130;13.978;2022-11-20T07:24:35;-5.20;99.90
19031;DHT22;9648;51.130;13.978;2022-11-20T07:27:02;-5.10;99.90
19031;DHT22;9648;51.130;13.978;2022-11-20T07:29:29;-5.00;99.90
19031;DHT22;9648;51.130;13.978;2022-11-20T07:31:57;-5.00;99.90
19031;DHT22;9648;51.130;13.978;2022-11-20T07:34:24;-4.90;99.90
19031;DHT22;9648;51.130;13.978;2022-11-20T07:36:51;-4.80;99.90
19031;DHT22;9648;51.130;13.978;2022-11-20T07:39:18;-4.80;99.90
19031;DHT22;9648;51.130;13.978;2022-11-20T07:41:45;-4.70;99.90
19031;DHT22;9648;51.130;13.978;2022-11-20T07:44:11;-4.70;99.90
19031;DHT22;9648;51.130;13.978;2022-11-20T07:46:38;-4.60;99.90
19031;DHT22;9648;51.130;13.978;2022-11-20T07:49:06;-4.50;99.90
19031;DHT22;9648;51.130;13.978;2022-11-20T07:51:33;-4.40;99.90
19031;DHT22;9648;51.130;13.978;2022-11-20T07:54:00;-4.30;99.90
19031;DHT22;9648;51.130;13.978;2022-11-20T07:56:26;-4.20;99.90
19031;DHT22;9648;51.130;13.978;2022-11-20T07:58:53;-4.20;99.90
19031;DHT22;9648;51.130;13.978;2022-11-20T08:01:20;-4.10;99.90
19031;DHT22;9648;51.130;13.978;2022-11-20T08:03:47;-4.10;99.90
19031;DHT22;9648;51.130;13.978;2022-11-20T08:06:15;-4.10;99.90
19031;DHT22;9648;51.130;13.978;2022-11-20T08:08:43;-4.00;99.90
19031;DHT22;9648;51.130;13.978;2022-11-20T08:11:09;-4.00;99.90
19031;DHT22;9648;51.130;13.978;2022-11-20T08:13:53;-3.90;99.90
19031;DHT22;9648;51.130;13.978;2022-11-20T08:16:38;-3.80;99.90
19031;DHT22;9648;51.130;13.978;2022-11-20T08:19:05;-3.70;99.90
19031;DHT22;9648;51.130;13.978;2022-11-20T08:21:34;-3.70;99.90
19031;DHT22;9648;51.130;13.978;2022-11-20T08:24:01;-3.60;99.90
19031;DHT22;9648;51.130;13.978;2022-11-20T08:26:28;-3.50;99.90
19031;DHT22;9648;51.130;13.978;2022-11-20T08:28:55;-3.50;99.90
19031;DHT22;9648;51.130;13.978;2022-11-20T08:31:23;-3.40;99.90
19031;DHT22;9648;51.130;13.978;2022-11-20T08:33:50;-3.40;99.90
19031;DHT22;9648;51.130;13.978;2022-11-20T08:36:18;-3.30;99.90
19031;DHT22;9648;51.130;13.978;2022-11-20T08:38:48;-3.30;99.90
19031;DHT22;9648;51.130;13.978;2022-11-20T08:41:15;-3.20;99.90
19031;DHT22;9648;51.130;13.978;2022-11-20T08:43:54;-3.20;99.90
19031;DHT22;9648;51.130;13.978;2022-11-20T08:46:21;-3.10;99.90
19031;DHT22;9648;51.130;13.978;2022-11-20T08:48:48;-3.00;99.90
19031;DHT22;9648;51.130;13.978;2022-11-20T08:51:15;-3.00;99.90
19031;DHT22;9648;51.130;13.978;2022-11-20T08:53:42;-3.00;99.90
19031;DHT22;9648;51.130;13.978;2022-11-20T08:56:11;-2.90;99.90
19031;DHT22;9648;51.130;13.978;2022-11-20T08:58:37;-2.80;99.90
19031;DHT22;9648;51.130;13.978;2022-11-20T09:01:04;-2.80;99.90
19031;DHT22;9648;51.130;13.978;2022-11-20T09:03:31;-2.70;99.90
19031;DHT22;9648;51.130;13.978;2022-11-20T09:05:58;-2.70;99.90
19031;DHT22;9648;51.130;13.978;2022-11-20T09:08:27;-2.60;99.90
19031;DHT22;9648;51.130;13.978;2022-11-20T09:10:55;-2.60;99.90
19031;DHT22;9648;51.130;13.978;2022-11-20T09:13:24;-2.50;99.90
19031;DHT22;9648;51.130;13.978;2022-11-20T09:15:53;-2.50;99.90
19031;DHT22;9648;51.130;13.978;2022-11-20T09:18:20;-2.40;99.90
19031;DHT22;9648;51.130;13.978;2022-11-20T09:20:47;-2.40;99.90
19031;DHT22;9648;51.130;13.978;2022-11-20T09:23:14;-2.30;99.90
19031;DHT22;9648;51.130;13.978;2022-11-20T09:25:41;-2.20;99.90
19031;DHT22;9648;51.130;13.978;2022-11-20T09:28:08;-2.20;99.90
19031;DHT22;9648;51.130;13.978;2022-11-20T09:30:36;-2.20;99.90
19031;DHT22;9648;51.130;13.978;2022-11-20T09:33:04;-2.20;99.90
19031;DHT22;9648;51.130;13.978;2022-11-20T09:35:31;-2.10;99.90
19031;DHT22;9648;51.130;13.978;2022-11-20T09:37:58;-2.10;99.90
19031;DHT22;9648;51.130;13.978;2022-11-20T09:40:27;-2.10;99.90
19031;DHT22;9648;51.130;13.978;2022-11-20T09:42:58;-2.00;99.90
19031;DHT22;9648;51.130;13.978;2022-11-20T09:45:38;-2.00;99.90
19031;DHT22;9648;51.130;13.978;2022-11-20T09:48:32;-2.00;99.90
19031;DHT22;9648;51.130;13.978;2022-11-20T09:51:07;-1.90;99.90
19031;DHT22;9648;51.130;13.978;2022-11-20T09:53:44;-1.80;99.90
19031;DHT22;9648;51.130;13.978;2022-11-20T09:56:14;-1.70;99.90
19031;DHT22;9648;51.130;13.978;2022-11-20T09:58:43;-1.70;99.90
19031;DHT22;9648;51.130;13.978;2022-11-20T10:01:15;-1.60;99.90
19031;DHT22;9648;51.130;13.978;2022-11-20T10:03:50;-1.60;99.90
19031;DHT22;9648;51.130;13.978;2022-11-20T10:06:23;-1.60;99.90
19031;DHT22;9648;51.130;13.978;2022-11-20T10:08:58;-1.60;99.90
19031;DHT22;9648;51.130;13.978;2022-11-20T10:11:33;-1.50;99.90
19031;DHT22;9648;51.130;13.978;2022-11-20T10:14:11;-1.50;99.90
19031;DHT22;9648;51.130;13.978;2022-11-20T10:16:51;-1.40;99.90
19031;DHT22;9648;51.130;13.978;2022-11-20T10:19:37;-1.40;99.90
19031;DHT22;9648;51.130;13.978;2022-11-20T10:22:15;-1.30;99.90
19031;DHT22;9648;51.130;13.978;2022-11-20T10:24:53;-1.30;99.90
19031;DHT22;9648;51.130;13.978;2022-11-20T10:30:20;-1.20;99.90
19031;DHT22;9648;51.130;13.978;2022-11-20T10:32:54;-1.10;99.90
19031;DHT22;9648;51.130;13.978;2022-11-20T10:35:28;-1.10;99.90
19031;DHT22;9648;51.130;13.978;2022-11-20T10:38:00;-1.00;99.90
19031;DHT22;9648;51.130;13.978;2022-11-20T10:40:32;-1.00;99.90
19031;DHT22;9648;51.130;13.978;2022-11-20T10:43:04;-1.00;99.90
19031;DHT22;9648;51.130;13.978;2022-11-20T10:45:48;-1.00;99.90
19031;DHT22;9648;51.130;13.978;2022-11-20T10:48:21;-1.00;99.90
19031;DHT22;9648;51.130;13.978;2022-11-20T10:53:48;-0.80;99.90
19031;DHT22;9648;51.130;13.978;2022-11-20T10:56:21;-0.80;99.90
19031;DHT22;9648;51.130;13.978;2022-11-20T10:59:02;-0.70;99.90
19031;DHT22;9648;51.130;13.978;2022-11-20T11:01:30;-0.60;99.90
19031;DHT22;9648;51.130;13.978;2022-11-20T11:03:58;-0.60;99.90
19031;DHT22;9648;51.130;13.978;2022-11-20T11:06:31;-0.60;99.90
19031;DHT22;9648;51.130;13.978;2022-11-20T11:09:03;-0.50;99.90
19031;DHT22;9648;51.130;13.978;2022-11-20T11:11:35;-0.50;99.90
19031;DHT22;9648;51.130;13.978;2022-11-20T11:14:05;-0.40;99.90
19031;DHT22;9648;51.130;13.978;2022-11-20T11:16:32;-0.40;99.90
19031;DHT22;9648;51.130;13.978;2022-11-20T11:19:07;-0.40;99.90
19031;DHT22;9648;51.130;13.978;2022-11-20T11:21:37;-0.30;99.90
19031;DHT22;9648;51.130;13.978;2022-11-20T11:24:18;-0.30;99.90
19031;DHT22;9648;51.130;13.978;2022-11-20T11:26:52;-0.30;99.90
19031;DHT22;9648;51.130;13.978;2022-11-20T11:29:20;-0.20;99.90
19031;DHT22;9648;51.130;13.978;2022-11-20T11:31:46;-0.10;99.90
19031;DHT22;9648;51.130;13.978;2022-11-20T11:34:16;-0.10;99.90
19031;DHT22;9648;51.130;13.978;2022-11-20T11:36:57;0.00;99.90
19031;DHT22;9648;51.130;13.978;2022-11-20T11:39:25;0.10;99.90
19031;DHT22;9648;51.130;13.978;2022-11-20T11:41:52;0.10;99.90
19031;DHT22;9648;51.130;13.978;2022-11-20T11:44:20;0.20;99.90
19031;DHT22;9648;51.130;13.978;2022-11-20T11:47:08;0.30;99.90
19031;DHT22;9648;51.130;13.978;2022-11-20T11:49:37;0.30;99.90
19031;DHT22;9648;51.130;13.978;2022-11-20T11:52:09;0.40;99.90
19031;DHT22;9648;51.130;13.978;2022-11-20T11:54:44;0.50;99.90
19031;DHT22;9648;51.130;13.978;2022-11-20T11:57:17;0.50;99.90
19031;DHT22;9648;51.130;13.978;2022-11-20T11:59:54;0.60;99.90
19031;DHT22;9648;51.130;13.978;2022-11-20T12:02:31;0.70;99.90
19031;DHT22;9648;51.130;13.978;2022-11-20T12:05:05;0.70;99.90
19031;DHT22;9648;51.130;13.978;2022-11-20T12:07:39;0.70;99.90
19031;DHT22;9648;51.130;13.978;2022-11-20T12:10:15;0.70;99.90
19031;DHT22;9648;51.130;13.978;2022-11-20T12:12:45;0.70;99.90
19031;DHT22;9648;51.130;13.978;2022-11-20T12:15:21;0.70;99.90
19031;DHT22;9648;51.130;13.978;2022-11-20T12:17:49;0.80;99.90
19031;DHT22;9648;51.130;13.978;2022-11-20T12:20:17;0.90;99.90
19031;DHT22;9648;51.130;13.978;2022-11-20T12:22:50;0.90;99.90
19031;DHT22;9648;51.130;13.978;2022-11-20T12:25:22;0.90;99.90
19031;DHT22;9648;51.130;13.978;2022-11-20T12:30:59;1.00;99.90
19031;DHT22;9648;51.130;13.978;2022-11-20T12:34:02;1.00;99.90
19031;DHT22;9648;51.130;13.978;2022-11-20T12:36:42;1.10;99.90
19031;DHT22;9648;51.130;13.978;2022-11-20T12:42:21;1.20;99.90
19031;DHT22;9648;51.130;13.978;2022-11-20T12:45:28;1.10;99.90
19031;DHT22;9648;51.130;13.978;2022-11-20T12:48:12;1.10;99.90
19031;DHT22;9648;51.130;13.978;2022-11-20T12:50:50;0.90;99.90
19031;DHT22;9648;51.130;13.978;2022-11-20T12:53:27;0.90;99.90
19031;DHT22;9648;51.130;13.978;2022-11-20T12:56:02;0.80;99.90
19031;DHT22;9648;51.130;13.978;2022-11-20T12:58:36;0.70;99.90
19031;DHT22;9648;51.130;13.978;2022-11-20T13:01:16;0.70;99.90
19031;DHT22;9648;51.130;13.978;2022-11-20T13:04:12;0.70;99.90
19031;DHT22;9648;51.130;13.978;2022-11-20T13:06:41;0.80;99.90
19031;DHT22;9648;51.130;13.978;2022-11-20T13:09:13;0.90;99.90
19031;DHT22;9648;51.130;13.978;2022-11-20T13:11:44;1.00;99.90
19031;DHT22;9648;51.130;13.978;2022-11-20T13:14:24;1.00;99.90
19031;DHT22;9648;51.130;13.978;2022-11-20T13:16:57;0.90;99.90
19031;DHT22;9648;51.130;13.978;2022-11-20T13:19:25;0.90;99.90
19031;DHT22;9648;51.130;13.978;2022-11-20T13:21:52;0.80;99.90
19031;DHT22;9648;51.130;13.978;2022-11-20T13:24:28;0.80;99.90
19031;DHT22;9648;51.130;13.978;2022-11-20T13:27:18;0.70;99.90
19031;DHT22;9648;51.130;13.978;2022-11-20T13:29:58;0.70;99.90
19031;DHT22;9648;51.130;13.978;2022-11-20T13:32:26;0.60;99.90
19031;DHT22;9648;51.130;13.978;2022-11-20T13:34:59;0.50;99.90
19031;DHT22;9648;51.130;13.978;2022-11-20T13:37:32;0.50;99.90
19031;DHT22;9648;51.130;13.978;2022-11-20T13:40:13;0.50;99.90
19031;DHT22;9648;51.130;13.978;2022-11-20T13:42:45;0.50;99.90
19031;DHT22;9648;51.130;13.978;2022-11-20T13:45:22;0.50;99.90
19031;DHT22;9648;51.130;13.978;2022-11-20T13:47:51;0.50;99.90
19031;DHT22;9648;51.130;13.978;2022-11-20T13:50:18;0.50;99.90
19031;DHT22;9648;51.130;13.978;2022-11-20T13:52:52;0.50;99.90
19031;DHT22;9648;51.130;13.978;2022-11-20T13:55:26;0.50;99.90
19031;DHT22;9648;51.130;13.978;2022-11-20T13:58:19;0.50;99.90
19031;DHT22;9648;51.130;13.978;2022-11-20T14:00:58;0.50;99.90
19031;DHT22;9648;51.130;13.978;2022-11-20T14:03:30;0.50;99.90
19031;DHT22;9648;51.130;13.978;2022-11-20T14:06:02;0.50;99.90
19031;DHT22;9648;51.130;13.978;2022-11-20T14:08:33;0.50;99.90
19031;DHT22;9648;51.130;13.978;2022-11-20T14:11:05;0.40;99.90
19031;DHT22;9648;51.130;13.978;2022-11-20T14:13:32;0.40;99.90
19031;DHT22;9648;51.130;13.978;2022-11-20T14:15:59;0.40;99.90
19031;DHT22;9648;51.130;13.978;2022-11-20T14:18:26;0.30;99.90
19031;DHT22;9648;51.130;13.978;2022-11-20T14:20:53;0.30;99.90
19031;DHT22;9648;51.130;13.978;2022-11-20T14:23:24;0.30;99.90
19031;DHT22;9648;51.130;13.978;2022-11-20T14:25:52;0.30;99.90
19031;DHT22;9648;51.130;13.978;2022-11-20T14:28:25;0.20;99.90
19031;DHT22;9648;51.130;13.978;2022-11-20T14:30:53;0.20;99.90
19031;DHT22;9648;51.130;13.978;2022-11-20T14:33:21;0.20;99.90
19031;DHT22;9648;51.130;13.978;2022-11-20T14:35:52;0.10;99.90
19031;DHT22;9648;51.130;13.978;2022-11-20T14:38:23;0.00;99.90
19031;DHT22;9648;51.130;13.978;2022-11-20T14:40:50;-0.10;99.90
19031;DHT22;9648;51.130;13.978;2022-11-20T14:43:22;0.00;99.90
19031;DHT22;9648;51.130;13.978;2022-11-20T14:45:55;0.00;99.90
19031;DHT22;9648;51.130;13.978;2022-11-20T14:48:28;0.00;99.90
19031;DHT22;9648;51.130;13.978;2022-11-20T14:50:55;0.00;99.90
19031;DHT22;9648;51.130;13.978;2022-11-20T14:53:23;-0.10;99.90
19031;DHT22;9648;51.130;13.978;2022-11-20T14:55:56;0.00;99.90
19031;DHT22;9648;51.130;13.978;2022-11-20T14:58:26;-0.10;99.90
19031;DHT22;9648;51.130;13.978;2022-11-20T15:00:54;-0.10;99.90
19031;DHT22;9648;51.130;13.978;2022-11-20T15:03:21;-0.10;99.90
19031;DHT22;9648;51.130;13.978;2022-11-20T15:05:49;-0.20;99.90
19031;DHT22;9648;51.130;13.978;2022-11-20T15:08:17;-0.30;99.90
19031;DHT22;9648;51.130;13.978;2022-11-20T15:10:46;-0.40;99.90
19031;DHT22;9648;51.130;13.978;2022-11-20T15:13:14;-0.60;99.90
19031;DHT22;9648;51.130;13.978;2022-11-20T15:15:46;-0.60;99.90
19031;DHT22;9648;51.130;13.978;2022-11-20T15:18:15;-0.70;99.90
19031;DHT22;9648;51.130;13.978;2022-11-20T15:20:43;-0.80;99.90
19031;DHT22;9648;51.130;13.978;2022-11-20T15:23:12;-0.80;99.90
19031;DHT22;9648;51.130;13.978;2022-11-20T15:25:39;-0.90;99.90
19031;DHT22;9648;51.130;13.978;2022-11-20T15:28:16;-1.00;99.90
19031;DHT22;9648;51.130;13.978;2022-11-20T15:30:45;-1.10;99.90
19031;DHT22;9648;51.130;13.978;2022-11-20T15:33:12;-1.20;99.90
19031;DHT22;9648;51.130;13.978;2022-11-20T15:35:40;-1.10;99.90
19031;DHT22;9648;51.130;13.978;2022-11-20T15:38:07;-1.20;99.90
19031;DHT22;9648;51.130;13.978;2022-11-20T15:40:33;-1.30;99.90
19031;DHT22;9648;51.130;13.978;2022-11-20T15:43:00;-1.40;99.90
19031;DHT22;9648;51.130;13.978;2022-11-20T15:45:34;-1.40;99.90
19031;DHT22;9648;51.130;13.978;2022-11-20T15:48:05;-1.50;99.90
19031;DHT22;9648;51.130;13.978;2022-11-20T15:50:36;-1.50;99.90
19031;DHT22;9648;51.130;13.978;2022-11-20T15:53:03;-1.50;99.90
19031;DHT22;9648;51.130;13.978;2022-11-20T15:55:31;-1.60;99.90
19031;DHT22;9648;51.130;13.978;2022-11-20T15:57:58;-1.60;99.90
19031;DHT22;9648;51.130;13.978;2022-11-20T16:00:24;-1.60;99.90
19031;DHT22;9648;51.130;13.978;2022-11-20T16:02:51;-1.60;99.90